createdAt,value
2023-05-22T00:02:00.238Z,27.40
2023-05-22T00:04:30.012Z,25.20
2023-05-22T00:06:57.019Z,27.30
2023-05-22T00:09:26.847Z,30.75
2023-05-22T00:11:53.596Z,28.08
2023-05-22T00:14:20.127Z,29.23
2023-05-22T00:16:48.420Z,30.13
2023-05-22T00:19:17.218Z,29.08
2023-05-22T00:21:44.526Z,29.02
2023-05-22T00:24:11.197Z,27.67
2023-05-22T00:26:37.804Z,30.67
2023-05-22T00:29:05.904Z,27.05
2023-05-22T00:31:32.632Z,31.35
2023-05-22T00:33:59.774Z,33.65
2023-05-22T00:36:26.557Z,29.27
2023-05-22T00:38:53.080Z,29.38
2023-05-22T00:41:19.708Z,31.00
2023-05-22T00:43:46.234Z,27.02
2023-05-22T00:46:12.972Z,31.88
2023-05-22T00:48:39.526Z,31.55
2023-05-22T00:51:07.324Z,30.35
2023-05-22T00:53:34.276Z,32.13
2023-05-22T00:56:01.042Z,30.65
2023-05-22T00:58:27.708Z,34.60
2023-05-22T01:00:55.678Z,32.05
2023-05-22T01:03:26.861Z,36.80
2023-05-22T01:05:55.052Z,38.72
2023-05-22T01:08:21.930Z,31.65
2023-05-22T01:10:54.405Z,29.85
2023-05-22T01:13:32.455Z,33.92
2023-05-22T01:16:08.358Z,30.20
2023-05-22T01:19:02.761Z,30.13
2023-05-22T01:21:38.959Z,31.85
2023-05-22T01:24:28.901Z,32.28
2023-05-22T01:27:06.636Z,33.35
2023-05-22T01:30:04.217Z,35.53
2023-05-22T01:32:32.248Z,36.08
2023-05-22T01:35:02.185Z,34.40
2023-05-22T01:37:29.480Z,33.97
2023-05-22T01:39:56.385Z,33.85
2023-05-22T01:42:23.432Z,33.42
2023-05-22T01:44:50.115Z,34.08
2023-05-22T01:47:18.107Z,32.08
2023-05-22T01:49:45.895Z,31.80
2023-05-22T01:52:36.221Z,35.47
2023-05-22T01:55:17.496Z,32.97
2023-05-22T01:57:51.667Z,30.77
2023-05-22T02:00:21.367Z,36.28
2023-05-22T02:02:51.411Z,32.70
2023-05-22T02:05:20.385Z,33.40
2023-05-22T02:07:48.230Z,33.58
2023-05-22T02:10:16.674Z,35.30
2023-05-22T02:12:43.816Z,32.92
2023-05-22T02:15:10.620Z,33.38
2023-05-22T02:17:40.437Z,31.60
2023-05-22T02:20:14.594Z,34.78
2023-05-22T02:22:43.392Z,30.98
2023-05-22T02:25:14.245Z,30.17
2023-05-22T02:27:42.831Z,35.70
2023-05-22T02:30:10.848Z,31.05
2023-05-22T02:32:39.337Z,34.28
2023-05-22T02:35:06.462Z,32.03
2023-05-22T02:37:33.213Z,35.10
2023-05-22T02:39:59.905Z,32.50
2023-05-22T02:42:26.591Z,33.05
2023-05-22T02:44:53.099Z,30.58
2023-05-22T02:47:19.776Z,33.42
2023-05-22T02:49:47.070Z,33.72
2023-05-22T02:52:13.661Z,33.65
2023-05-22T02:54:40.217Z,30.70
2023-05-22T02:57:06.969Z,31.95
2023-05-22T02:59:35.838Z,37.53
2023-05-22T03:02:03.133Z,35.92
2023-05-22T03:04:29.802Z,30.45
2023-05-22T03:06:56.346Z,35.08
2023-05-22T03:09:22.875Z,37.90
2023-05-22T03:11:49.388Z,36.40
2023-05-22T03:14:15.840Z,38.63
2023-05-22T03:16:42.565Z,41.13
2023-05-22T03:19:10.211Z,40.53
2023-05-22T03:21:36.986Z,55.85
2023-05-22T03:24:03.834Z,46.38
2023-05-22T03:26:30.936Z,38.50
2023-05-22T03:28:58.120Z,37.13
2023-05-22T03:31:26.156Z,46.65
2023-05-22T03:33:52.749Z,40.90
2023-05-22T03:36:21.400Z,48.95
2023-05-22T03:38:47.864Z,40.92
2023-05-22T03:41:14.433Z,41.75
2023-05-22T03:43:44.159Z,45.55
2023-05-22T03:46:11.676Z,51.85
2023-05-22T03:48:38.888Z,41.03
2023-05-22T03:51:06.120Z,35.70
2023-05-22T03:53:32.660Z,40.45
2023-05-22T03:55:59.368Z,39.47
2023-05-22T03:58:26.080Z,37.08
2023-05-22T04:00:58.630Z,35.97
2023-05-22T04:03:25.270Z,31.60
2023-05-22T04:05:52.145Z,37.33
2023-05-22T04:08:18.690Z,35.42
2023-05-22T04:10:48.550Z,43.67
2023-05-22T04:13:16.567Z,36.85
2023-05-22T04:15:46.854Z,38.10
2023-05-22T04:18:14.472Z,31.77
2023-05-22T04:20:41.708Z,31.55
2023-05-22T04:23:08.378Z,34.83
2023-05-22T04:25:36.359Z,30.80
2023-05-22T04:28:03.926Z,29.65
2023-05-22T04:30:34.020Z,37.80
2023-05-22T04:33:00.950Z,33.92
2023-05-22T04:35:29.593Z,33.53
2023-05-22T04:38:02.753Z,31.90
2023-05-22T04:40:30.363Z,31.73
2023-05-22T04:42:59.996Z,30.40
2023-05-22T04:45:30.481Z,30.50
2023-05-22T04:47:57.145Z,29.75
2023-05-22T04:50:24.071Z,33.15
2023-05-22T04:52:50.810Z,31.48
2023-05-22T04:55:17.497Z,30.35
2023-05-22T04:57:45.149Z,33.13
2023-05-22T05:00:14.198Z,37.22
2023-05-22T05:02:41.290Z,38.10
2023-05-22T05:05:08.398Z,35.10
2023-05-22T05:07:40.108Z,35.22
2023-05-22T05:10:07.331Z,37.00
2023-05-22T05:12:34.080Z,35.70
2023-05-22T05:15:00.641Z,33.00
2023-05-22T05:17:27.350Z,38.13
2023-05-22T05:19:53.920Z,36.00
2023-05-22T05:22:20.374Z,37.17
2023-05-22T05:24:46.838Z,35.97
2023-05-22T05:27:13.996Z,36.22
2023-05-22T05:29:41.192Z,34.88
2023-05-22T05:32:08.144Z,34.05
2023-05-22T05:34:34.782Z,37.33
2023-05-22T05:37:02.840Z,35.65
2023-05-22T05:39:29.693Z,35.65
2023-05-22T05:41:56.301Z,31.45
2023-05-22T05:44:22.889Z,34.47
2023-05-22T05:46:49.440Z,33.95
2023-05-22T05:49:15.979Z,37.13
2023-05-22T05:51:42.446Z,35.67
2023-05-22T05:54:08.895Z,39.38
2023-05-22T05:56:35.823Z,35.15
2023-05-22T05:59:02.311Z,31.48
2023-05-22T06:01:32.794Z,32.40
2023-05-22T06:04:03.232Z,34.55
2023-05-22T06:06:36.249Z,31.35
2023-05-22T06:09:06.107Z,34.50
2023-05-22T06:11:33.373Z,33.17
2023-05-22T06:14:01.477Z,33.50
2023-05-22T06:16:28.525Z,34.63
2023-05-22T06:18:57.155Z,32.53
2023-05-22T06:21:24.548Z,34.55
2023-05-22T06:23:51.627Z,32.83
2023-05-22T06:26:18.364Z,36.13
2023-05-22T06:28:45.613Z,34.55
2023-05-22T06:31:12.214Z,29.38
2023-05-22T06:33:40.676Z,33.75
2023-05-22T06:36:08.888Z,30.73
2023-05-22T06:38:35.467Z,30.40
2023-05-22T06:41:02.096Z,32.67
2023-05-22T06:43:28.605Z,29.13
2023-05-22T06:45:55.176Z,32.45
2023-05-22T06:48:21.773Z,30.25
2023-05-22T06:50:48.304Z,32.75
2023-05-22T06:53:14.789Z,32.67
2023-05-22T06:55:41.997Z,30.08
2023-05-22T06:58:08.539Z,29.58
2023-05-22T07:00:35.276Z,30.27
2023-05-22T07:03:02.088Z,30.42
2023-05-22T07:05:28.721Z,28.58
2023-05-22T07:07:55.630Z,27.95
2023-05-22T07:10:22.176Z,25.38
2023-05-22T07:12:48.621Z,29.33
2023-05-22T07:15:15.126Z,26.80
2023-05-22T07:17:41.934Z,27.63
2023-05-22T07:20:10.112Z,26.48
2023-05-22T07:22:36.749Z,24.90
2023-05-22T07:25:03.423Z,30.75
2023-05-22T07:27:30.215Z,28.00
2023-05-22T07:29:56.763Z,27.75
2023-05-22T07:32:23.245Z,24.58
2023-05-22T07:34:49.704Z,26.27
2023-05-22T07:37:16.312Z,23.65
2023-05-22T07:39:42.748Z,24.60
2023-05-22T07:42:09.365Z,26.80
2023-05-22T07:44:36.092Z,26.17
2023-05-22T07:47:02.829Z,26.33
2023-05-22T07:49:29.371Z,23.23
2023-05-22T07:51:55.872Z,26.45
2023-05-22T07:54:22.553Z,25.55
2023-05-22T07:56:49.581Z,24.83
2023-05-22T07:59:16.308Z,25.77
2023-05-22T08:01:42.859Z,24.73
2023-05-22T08:04:09.692Z,27.08
2023-05-22T08:06:36.789Z,24.67
2023-05-22T08:09:04.957Z,23.77
2023-05-22T08:11:31.545Z,23.85
2023-05-22T08:13:58.099Z,25.83
2023-05-22T08:16:24.846Z,25.73
2023-05-22T08:18:51.567Z,25.02
2023-05-22T08:21:18.534Z,23.98
2023-05-22T08:23:45.142Z,25.05
2023-05-22T08:26:11.914Z,25.05
2023-05-22T08:28:41.970Z,24.60
2023-05-22T08:31:08.526Z,25.52
2023-05-22T08:33:35.020Z,24.13
2023-05-22T08:36:01.892Z,27.23
2023-05-22T08:38:28.637Z,22.92
2023-05-22T08:40:58.039Z,23.55
2023-05-22T08:43:24.978Z,25.30
2023-05-22T08:46:04.418Z,22.45
2023-05-22T08:48:32.180Z,24.23
2023-05-22T08:51:03.107Z,24.48
2023-05-22T08:53:33.764Z,24.92
2023-05-22T08:56:02.090Z,21.88
2023-05-22T08:58:29.140Z,23.08
2023-05-22T09:00:56.058Z,23.33
2023-05-22T09:03:23.116Z,23.42
2023-05-22T09:05:50.049Z,21.90
2023-05-22T09:08:21.022Z,22.50
2023-05-22T09:10:47.920Z,23.05
2023-05-22T09:13:27.843Z,22.25
2023-05-22T09:16:15.091Z,19.88
2023-05-22T09:18:45.190Z,22.98
2023-05-22T09:31:18.141Z,20.30
2023-05-22T09:33:45.146Z,20.48
2023-05-22T09:36:11.907Z,22.42
2023-05-22T09:38:39.369Z,22.90
2023-05-22T09:41:06.141Z,21.67
2023-05-22T09:43:33.925Z,23.52
2023-05-22T09:46:02.332Z,25.25
2023-05-22T09:48:33.535Z,20.60
2023-05-22T09:51:01.079Z,22.38
2023-05-22T09:53:30.980Z,25.52
2023-05-22T09:56:00.166Z,23.00
2023-05-22T09:58:33.658Z,22.88
2023-05-22T10:01:01.516Z,21.80
2023-05-22T10:03:28.576Z,20.52
2023-05-22T10:05:58.736Z,18.90
2023-05-22T10:08:28.449Z,19.52
2023-05-22T10:10:55.006Z,19.25
2023-05-22T10:13:21.967Z,20.35
2023-05-22T10:15:49.456Z,18.25
2023-05-22T10:18:17.480Z,17.13
2023-05-22T10:20:46.950Z,18.95
2023-05-22T10:23:15.417Z,16.17
2023-05-22T10:25:42.971Z,18.10
2023-05-22T10:28:10.482Z,17.67
2023-05-22T10:30:40.063Z,17.88
2023-05-22T10:33:18.234Z,20.73
2023-05-22T10:35:55.496Z,18.98
2023-05-22T10:38:27.760Z,18.70
2023-05-22T10:40:55.319Z,18.30
2023-05-22T10:43:22.807Z,17.35
2023-05-22T10:45:49.566Z,15.80
2023-05-22T10:48:21.689Z,17.55
2023-05-22T10:50:54.561Z,16.25
2023-05-22T10:53:31.299Z,18.42
2023-05-22T10:56:02.680Z,16.40
2023-05-22T10:58:31.205Z,17.55
2023-05-22T11:01:26.863Z,16.70
2023-05-22T11:04:08.619Z,16.02
2023-05-22T11:06:38.045Z,17.52
2023-05-22T11:09:30.685Z,15.27
2023-05-22T11:12:22.434Z,19.15
2023-05-22T11:14:53.602Z,15.43
2023-05-22T11:17:25.852Z,15.57
2023-05-22T11:20:00.527Z,13.73
2023-05-22T11:22:39.719Z,14.98
2023-05-22T11:25:17.969Z,17.30
2023-05-22T11:27:44.924Z,15.57
2023-05-22T11:30:12.719Z,15.07
2023-05-22T11:32:40.750Z,15.23
2023-05-22T11:35:10.559Z,16.23
2023-05-22T11:37:41.596Z,16.60
2023-05-22T11:40:09.014Z,12.60
2023-05-22T11:42:36.582Z,13.43
2023-05-22T11:45:04.462Z,11.98
2023-05-22T11:47:31.673Z,13.68
2023-05-22T11:49:59.836Z,16.85
2023-05-22T11:52:33.761Z,12.35
2023-05-22T11:55:00.736Z,12.40
2023-05-22T11:57:27.253Z,13.20
2023-05-22T11:59:53.806Z,11.60
2023-05-22T12:02:20.400Z,12.02
2023-05-22T12:04:46.882Z,11.48
2023-05-22T12:07:14.129Z,10.70
2023-05-22T12:09:42.060Z,12.55
2023-05-22T12:12:12.014Z,12.40
2023-05-22T12:17:06.392Z,15.15
2023-05-22T12:19:33.060Z,16.05
2023-05-22T12:21:59.734Z,17.58
2023-05-22T12:24:26.268Z,13.68
2023-05-22T12:26:53.762Z,13.05
2023-05-22T12:29:23.926Z,12.52
2023-05-22T12:31:50.953Z,12.98
2023-05-22T12:34:18.700Z,11.13
2023-05-22T12:36:46.772Z,12.02
2023-05-22T12:39:17.772Z,12.57
2023-05-22T12:41:45.844Z,13.82
2023-05-22T12:44:16.338Z,13.57
2023-05-22T12:46:43.432Z,14.95
2023-05-22T12:49:10.742Z,14.25
2023-05-22T12:51:37.241Z,13.93
2023-05-22T12:54:04.519Z,12.77
2023-05-22T12:56:31.913Z,14.88
2023-05-22T12:58:58.743Z,13.68
2023-05-22T13:01:26.283Z,14.00
2023-05-22T13:03:53.057Z,15.80
2023-05-22T13:06:20.562Z,16.70
2023-05-22T13:08:47.019Z,17.55
2023-05-22T13:11:13.509Z,17.58
2023-05-22T13:13:40.056Z,16.73
2023-05-22T13:16:06.808Z,16.85
2023-05-22T13:18:33.330Z,17.77
2023-05-22T13:21:00.633Z,16.88
2023-05-22T13:23:27.243Z,16.25
2023-05-22T13:25:53.887Z,17.30
2023-05-22T13:28:20.375Z,16.67
2023-05-22T13:30:46.944Z,14.88
2023-05-22T13:33:13.658Z,14.23
2023-05-22T13:35:40.649Z,15.25
2023-05-22T13:38:07.816Z,14.93
2023-05-22T13:40:34.324Z,16.42
2023-05-22T13:43:01.158Z,15.07
2023-05-22T13:45:27.832Z,16.48
2023-05-22T13:47:55.921Z,14.43
2023-05-22T13:50:22.590Z,14.60
2023-05-22T13:52:49.145Z,11.68
2023-05-22T13:55:15.740Z,12.73
2023-05-22T13:57:42.590Z,12.55
2023-05-22T14:00:10.105Z,12.57
2023-05-22T14:02:36.857Z,13.32
2023-05-22T14:05:03.567Z,14.77
2023-05-22T14:07:30.474Z,15.23
2023-05-22T14:09:59.660Z,11.32
2023-05-22T14:12:27.791Z,12.77
2023-05-22T14:14:54.435Z,11.65
2023-05-22T14:17:21.119Z,10.77
2023-05-22T14:19:47.641Z,11.70
2023-05-22T14:22:14.183Z,11.52
2023-05-22T14:24:40.683Z,14.13
2023-05-22T14:27:07.273Z,14.85
2023-05-22T14:29:33.852Z,13.25
2023-05-22T14:32:04.800Z,11.32
2023-05-22T14:34:31.639Z,10.48
2023-05-22T14:36:58.546Z,13.48
2023-05-22T14:39:25.842Z,10.80
2023-05-22T14:41:55.150Z,13.43
2023-05-22T14:44:22.777Z,12.27
2023-05-22T14:46:51.157Z,11.23
2023-05-22T14:49:17.920Z,11.18
2023-05-22T14:51:48.393Z,10.40
2023-05-22T14:54:19.023Z,16.50
2023-05-22T14:56:46.261Z,11.75
2023-05-22T14:59:13.416Z,9.13
2023-05-22T15:01:40.068Z,11.15
2023-05-22T15:04:08.674Z,10.48
2023-05-22T15:06:35.459Z,10.18
2023-05-22T15:09:02.185Z,9.68
2023-05-22T15:11:28.808Z,9.25
2023-05-22T15:13:55.451Z,9.02
2023-05-22T15:16:22.511Z,9.93
2023-05-22T15:18:49.155Z,10.73
2023-05-22T15:21:16.004Z,12.35
2023-05-22T15:23:42.862Z,8.43
2023-05-22T15:26:09.435Z,8.93
2023-05-22T15:28:36.001Z,8.32
2023-05-22T15:31:02.501Z,9.32
2023-05-22T15:33:28.960Z,11.30
2023-05-22T15:35:56.893Z,9.05
2023-05-22T15:38:23.419Z,8.13
2023-05-22T15:40:49.914Z,9.48
2023-05-22T15:43:16.391Z,7.88
2023-05-22T15:45:47.292Z,8.32
2023-05-22T15:48:14.125Z,8.90
2023-05-22T15:50:40.904Z,7.80
2023-05-22T15:53:07.506Z,6.90
2023-05-22T15:55:34.428Z,8.05
2023-05-22T15:58:02.672Z,6.57
2023-05-22T16:00:29.264Z,5.72
2023-05-22T16:02:55.993Z,6.07
2023-05-22T16:05:22.654Z,6.28
2023-05-22T16:07:49.238Z,7.18
2023-05-22T16:10:15.794Z,5.32
2023-05-22T16:12:42.287Z,5.85
2023-05-22T16:15:09.466Z,6.70
2023-05-22T16:17:36.630Z,6.60
2023-05-22T16:20:04.956Z,10.65
2023-05-22T16:22:44.151Z,6.45
2023-05-22T16:25:18.369Z,7.40
2023-05-22T16:27:47.828Z,6.80
2023-05-22T16:30:19.293Z,7.43
2023-05-22T16:32:47.144Z,7.47
2023-05-22T16:35:14.899Z,6.38
2023-05-22T16:37:41.613Z,7.43
2023-05-22T16:40:09.392Z,8.35
2023-05-22T16:42:36.586Z,8.50
2023-05-22T16:45:03.820Z,7.68
2023-05-22T16:47:30.708Z,7.90
2023-05-22T16:49:57.189Z,7.43
2023-05-22T16:52:25.598Z,8.82
2023-05-22T16:54:52.657Z,8.07
2023-05-22T16:57:19.457Z,8.32
2023-05-22T16:59:46.269Z,6.93
2023-05-22T17:02:13.598Z,7.53
2023-05-22T17:04:40.619Z,7.82
2023-05-22T17:07:07.335Z,7.32
2023-05-22T17:09:34.011Z,9.63
2023-05-22T17:12:01.102Z,7.35
2023-05-22T17:14:27.838Z,7.70
2023-05-22T17:16:55.764Z,8.80
2023-05-22T17:19:22.782Z,10.15
2023-05-22T17:21:49.392Z,8.70
2023-05-22T17:24:16.069Z,9.27
2023-05-22T17:26:43.971Z,8.48
2023-05-22T17:29:13.310Z,8.63
2023-05-22T17:31:39.952Z,8.68
2023-05-22T17:34:06.806Z,9.77
2023-05-22T17:36:33.779Z,8.07
2023-05-22T17:39:00.602Z,9.20
2023-05-22T17:41:27.212Z,8.88
2023-05-22T17:43:55.817Z,8.52
2023-05-22T17:46:23.124Z,10.00
2023-05-22T17:48:49.604Z,10.20
2023-05-22T17:51:16.144Z,10.23
2023-05-22T17:53:42.631Z,9.77
2023-05-22T17:56:09.261Z,8.93
2023-05-22T17:58:35.799Z,11.68
2023-05-22T18:01:02.278Z,10.57
2023-05-22T18:03:28.845Z,10.23
2023-05-22T18:05:55.427Z,10.63
2023-05-22T18:08:21.970Z,9.98
2023-05-22T18:10:49.052Z,12.02
2023-05-22T18:13:15.862Z,9.82
2023-05-22T18:15:42.405Z,10.57
2023-05-22T18:18:11.353Z,11.77
2023-05-22T18:23:06.255Z,10.18
2023-05-22T18:25:32.684Z,10.88
2023-05-22T18:27:59.149Z,10.00
2023-05-22T18:30:25.813Z,12.30
2023-05-22T18:32:52.580Z,13.63
2023-05-22T18:35:19.187Z,12.98
2023-05-22T18:37:46.030Z,12.20
2023-05-22T18:40:12.961Z,11.82
2023-05-22T18:42:39.463Z,11.82
2023-05-22T18:45:06.820Z,14.02
2023-05-22T18:47:33.703Z,11.77
2023-05-22T18:50:00.287Z,9.40
2023-05-22T18:52:26.826Z,13.50
2023-05-22T18:54:53.356Z,13.20
2023-05-22T18:57:20.137Z,12.65
2023-05-22T18:59:47.060Z,13.02
2023-05-22T19:02:16.289Z,11.93
2023-05-22T19:04:43.638Z,12.60
2023-05-22T19:07:10.675Z,13.70
2023-05-22T19:09:37.283Z,14.30
2023-05-22T19:12:03.913Z,11.70
2023-05-22T19:14:30.461Z,11.77
2023-05-22T19:17:00.201Z,13.57
2023-05-22T19:19:27.373Z,13.48
2023-05-22T19:21:54.445Z,13.55
2023-05-22T19:24:21.080Z,12.45
2023-05-22T19:26:47.770Z,13.50
2023-05-22T19:29:14.343Z,13.18
2023-05-22T19:31:40.880Z,15.40
2023-05-22T19:34:07.369Z,13.50
2023-05-22T19:36:34.695Z,13.05
2023-05-22T19:39:01.157Z,16.98
2023-05-22T19:41:27.644Z,12.30
2023-05-22T19:43:54.079Z,12.45
2023-05-22T19:46:21.118Z,11.35
2023-05-22T19:48:47.658Z,12.10
2023-05-22T19:51:14.244Z,13.13
2023-05-22T19:53:42.426Z,12.43
2023-05-22T19:56:09.097Z,14.48
2023-05-22T19:58:38.644Z,13.15
2023-05-22T20:01:05.192Z,15.43
2023-05-22T20:03:31.866Z,13.23
2023-05-22T20:05:58.576Z,14.40
2023-05-22T20:08:25.444Z,14.13
2023-05-22T20:10:52.263Z,14.55
2023-05-22T20:13:18.824Z,12.93
2023-05-22T20:15:47.646Z,15.15
2023-05-22T20:18:14.494Z,14.80
2023-05-22T20:20:41.133Z,17.80
2023-05-22T20:23:07.906Z,19.48
2023-05-22T20:25:34.469Z,15.68
2023-05-22T20:28:02.738Z,17.08
2023-05-22T20:30:29.284Z,16.95
2023-05-22T20:32:55.860Z,15.40
2023-05-22T20:35:22.507Z,17.83
2023-05-22T20:37:49.235Z,18.48
2023-05-22T20:40:16.057Z,16.13
2023-05-22T20:42:42.785Z,18.70
2023-05-22T20:45:12.851Z,14.68
2023-05-22T20:47:41.020Z,17.05
2023-05-22T20:50:08.937Z,15.45
2023-05-22T20:52:37.021Z,13.68
2023-05-22T20:55:04.132Z,14.15
2023-05-22T20:57:30.952Z,12.90
2023-05-22T20:59:58.221Z,12.43
2023-05-22T21:02:24.644Z,11.73
2023-05-22T21:04:51.207Z,11.45
2023-05-22T21:07:18.140Z,8.95
2023-05-22T21:09:44.674Z,9.23
2023-05-22T21:12:11.271Z,9.90
2023-05-22T21:14:37.782Z,10.57
2023-05-22T21:17:04.594Z,11.20
2023-05-22T21:19:31.102Z,8.90
2023-05-22T21:21:57.694Z,8.70
2023-05-22T21:24:24.194Z,10.52
2023-05-22T21:26:50.856Z,8.07
2023-05-22T21:29:17.360Z,11.32
2023-05-22T21:31:43.917Z,9.18
2023-05-22T21:34:10.412Z,8.52
2023-05-22T21:36:36.909Z,8.95
2023-05-22T21:39:03.577Z,9.40
2023-05-22T21:41:30.062Z,9.65
2023-05-22T21:43:57.437Z,9.20
2023-05-22T21:46:24.378Z,9.02
2023-05-22T21:48:51.125Z,12.10
2023-05-22T21:51:17.642Z,9.85
2023-05-22T21:53:44.142Z,9.07
2023-05-22T21:56:10.709Z,10.00
2023-05-22T21:58:37.254Z,8.85
2023-05-22T22:01:03.845Z,9.57
2023-05-22T22:03:30.513Z,10.55
2023-05-22T22:05:57.272Z,8.77
2023-05-22T22:08:23.776Z,9.13
2023-05-22T22:10:50.792Z,12.10
2023-05-22T22:13:17.320Z,8.70
2023-05-22T22:15:43.773Z,11.38
2023-05-22T22:18:14.880Z,10.88
2023-05-22T22:20:44.881Z,8.20
2023-05-22T22:23:12.195Z,9.98
2023-05-22T22:25:39.193Z,11.40
2023-05-22T22:28:07.276Z,12.48
2023-05-22T22:30:34.014Z,10.40
2023-05-22T22:33:00.555Z,9.82
2023-05-22T22:35:27.233Z,13.77
2023-05-22T22:37:53.760Z,10.38
2023-05-22T22:40:20.180Z,11.20
2023-05-22T22:42:46.635Z,11.18
2023-05-22T22:45:14.615Z,11.82
2023-05-22T22:47:41.243Z,13.10
2023-05-22T22:50:09.994Z,12.25
2023-05-22T22:52:37.859Z,15.93
2023-05-22T22:55:06.654Z,12.25
2023-05-22T22:57:33.461Z,11.43
2023-05-22T22:59:59.958Z,14.18
2023-05-22T23:02:26.561Z,16.42
2023-05-22T23:04:53.134Z,15.07
2023-05-22T23:07:19.808Z,15.82
2023-05-22T23:09:46.298Z,12.57
2023-05-22T23:12:12.784Z,17.10
2023-05-22T23:14:39.304Z,15.15
2023-05-22T23:17:05.962Z,15.30
2023-05-22T23:19:32.447Z,13.98
2023-05-22T23:21:58.981Z,17.20
2023-05-22T23:24:25.607Z,16.70
2023-05-22T23:26:52.904Z,14.18
2023-05-22T23:29:19.409Z,15.57
2023-05-22T23:31:47.394Z,17.17
2023-05-22T23:34:14.194Z,18.30
2023-05-22T23:36:41.052Z,15.93
2023-05-22T23:39:07.678Z,19.17
2023-05-22T23:41:35.516Z,14.25
2023-05-22T23:44:02.520Z,19.58
2023-05-22T23:46:29.426Z,15.73
2023-05-22T23:48:56.017Z,21.58
2023-05-22T23:51:22.471Z,20.15
2023-05-22T23:53:48.874Z,17.13
2023-05-22T23:56:17.160Z,20.52
2023-05-22T23:58:46.457Z,18.20
